MCP Nicosia — C4WM2 — position and weather

sailwx.info

Track history (hours):
 
Tides and Currents Weather Stations Pressure Air Temp Water Temp Dewpoint Dewpoint Depression Visibility Wind Speed Wind Dir Waves Ship Positions

MCP Nicosia

Last reported at 2017-Nov-11 14:13 UTC. Time now 2017-Nov-24 14:54 UTC.
Position N 24°55' W 016°07'.
Warning: this ship's position is 13 days out of date.

Length 117 m; draft 6.9 m.

Type: Cargo ship. MMSI: 212741000.

Date/timePositionNaut miles runAvg speedWind from/ knotsBaromVisibWave heightAir tempDewpointWater temp
2017-Nov-11 14:13N 24°55' W 016°07'311.9
2017-Nov-11 14:00N 24°57' W 016°07'611.8
2017-Nov-11 13:30N 25°03' W 016°07'611.7
2017-Nov-11 13:00N 25°09' W 016°07'10412.7
2017-Nov-11 04:48N 26°34' W 015°00'513.1
2017-Nov-11 04:27N 26°38' W 014°57'1212.8
2017-Nov-11 03:30N 26°48' W 014°50'612.9
2017-Nov-11 03:00N 26°53' W 014°46'612.9
2017-Nov-11 02:30N 26°59' W 014°41'613.0
2017-Nov-11 02:00N 27°04' W 014°37'713.2
2017-Nov-11 01:29N 27°09' W 014°32'613.3
2017-Nov-11 01:00N 27°13' W 014°27'713.2
2017-Nov-11 00:30N 27°17' W 014°21'613.0
2017-Nov-11 00:00N 27°21' W 014°15'713.2
2017-Nov-10 23:30N 27°25' W 014°09'713.8
2017-Nov-10 23:00N 27°31' W 014°04'713.8
2017-Nov-10 22:30N 27°36' W 013°60'714.2
2017-Nov-10 22:00N 27°41' W 013°54'713.7
2017-Nov-10 21:30N 27°47' W 013°49'713.5
2017-Nov-10 21:00N 27°52' W 013°45'713.2
2017-Nov-10 20:30N 27°57' W 013°40'613.0
2017-Nov-10 20:00N 28°03' W 013°36'1713.0
2017-Nov-10 18:44N 28°16' W 013°26'312.9
2017-Nov-10 18:28N 28°19' W 013°24'713.1
2017-Nov-10 17:58N 28°25' W 013°20'613.1
2017-Nov-10 17:30N 28°30' W 013°16'613.2
2017-Nov-10 17:00N 28°35' W 013°11'813.6
2017-Nov-10 16:24N 28°42' W 013°06'813.3
2017-Nov-10 15:48N 28°49' W 013°02'413.0
2017-Nov-10 15:30N 28°52' W 012°60'813.2
2017-Nov-10 14:54N 28°59' W 012°55'512.8
2017-Nov-10 14:30N 29°03' W 012°52'613.0
2017-Nov-10 14:01N 29°09' W 012°48'913.3
2017-Nov-10 13:18N 29°17' W 012°42'413.3
2017-Nov-10 12:59N 29°20' W 012°39'613.4
2017-Nov-10 12:30N 29°26' W 012°35'713.5
2017-Nov-10 12:00N 29°31' W 012°31'713.6
2017-Nov-10 11:30N 29°37' W 012°27'1113.5
2017-Nov-10 10:44N 29°46' W 012°20'713.5
2017-Nov-10 10:11N 29°52' W 012°16'413.3
2017-Nov-10 09:51N 29°56' W 012°13'513.5
2017-Nov-10 09:30N 29°60' W 012°10'713.5
2017-Nov-10 08:58N 30°06' W 012°06'2412.9
2017-Nov-10 07:04N 30°27' W 011°52'112.8
2017-Nov-10 07:00N 30°28' W 011°51'612.6
2017-Nov-10 06:30N 30°33' W 011°47'713.0
2017-Nov-10 06:00N 30°38' W 011°42'713.1
2017-Nov-10 05:30N 30°43' W 011°37'713.3
2017-Nov-10 05:00N 30°48' W 011°32'1013.4
2017-Nov-10 04:15N 30°56' W 011°25'  
Track history (hours):
 
Tides and Currents Weather Stations Pressure Air Temp Water Temp Dewpoint Dewpoint Depression Visibility Wind Speed Wind Dir Waves Ship Positions

MCP Nicosia

Last reported at 2017-Nov-11 14:13 UTC. Time now 2017-Nov-24 14:54 UTC.
Position N 24°55' W 016°07'.
Warning: this ship's position is 13 days out of date.

Length 117 m; draft 6.9 m.

Type: Cargo ship. MMSI: 212741000.

Date/timePositionNaut miles runAvg speedWind from/ knotsBaromVisibWave heightAir tempDewpointWater temp
2017-Nov-11 14:13N 24°55' W 016°07'311.9
2017-Nov-11 14:00N 24°57' W 016°07'611.8
2017-Nov-11 13:30N 25°03' W 016°07'611.7
2017-Nov-11 13:00N 25°09' W 016°07'10412.7
2017-Nov-11 04:48N 26°34' W 015°00'513.1
2017-Nov-11 04:27N 26°38' W 014°57'1212.8
2017-Nov-11 03:30N 26°48' W 014°50'612.9
2017-Nov-11 03:00N 26°53' W 014°46'612.9
2017-Nov-11 02:30N 26°59' W 014°41'613.0
2017-Nov-11 02:00N 27°04' W 014°37'713.2
2017-Nov-11 01:29N 27°09' W 014°32'613.3
2017-Nov-11 01:00N 27°13' W 014°27'713.2
2017-Nov-11 00:30N 27°17' W 014°21'613.0
2017-Nov-11 00:00N 27°21' W 014°15'713.2
2017-Nov-10 23:30N 27°25' W 014°09'713.8
2017-Nov-10 23:00N 27°31' W 014°04'713.8
2017-Nov-10 22:30N 27°36' W 013°60'714.2
2017-Nov-10 22:00N 27°41' W 013°54'713.7
2017-Nov-10 21:30N 27°47' W 013°49'713.5
2017-Nov-10 21:00N 27°52' W 013°45'713.2
2017-Nov-10 20:30N 27°57' W 013°40'613.0
2017-Nov-10 20:00N 28°03' W 013°36'1713.0
2017-Nov-10 18:44N 28°16' W 013°26'312.9
2017-Nov-10 18:28N 28°19' W 013°24'713.1
2017-Nov-10 17:58N 28°25' W 013°20'613.1
2017-Nov-10 17:30N 28°30' W 013°16'613.2
2017-Nov-10 17:00N 28°35' W 013°11'813.6
2017-Nov-10 16:24N 28°42' W 013°06'813.3
2017-Nov-10 15:48N 28°49' W 013°02'413.0
2017-Nov-10 15:30N 28°52' W 012°60'813.2
2017-Nov-10 14:54N 28°59' W 012°55'512.8
2017-Nov-10 14:30N 29°03' W 012°52'613.0
2017-Nov-10 14:01N 29°09' W 012°48'913.3
2017-Nov-10 13:18N 29°17' W 012°42'413.3
2017-Nov-10 12:59N 29°20' W 012°39'613.4
2017-Nov-10 12:30N 29°26' W 012°35'713.5
2017-Nov-10 12:00N 29°31' W 012°31'713.6
2017-Nov-10 11:30N 29°37' W 012°27'1113.5
2017-Nov-10 10:44N 29°46' W 012°20'713.5
2017-Nov-10 10:11N 29°52' W 012°16'413.3
2017-Nov-10 09:51N 29°56' W 012°13'513.5
2017-Nov-10 09:30N 29°60' W 012°10'713.5
2017-Nov-10 08:58N 30°06' W 012°06'2412.9
2017-Nov-10 07:04N 30°27' W 011°52'112.8
2017-Nov-10 07:00N 30°28' W 011°51'612.6
2017-Nov-10 06:30N 30°33' W 011°47'713.0
2017-Nov-10 06:00N 30°38' W 011°42'713.1
2017-Nov-10 05:30N 30°43' W 011°37'713.3
2017-Nov-10 05:00N 30°48' W 011°32'1013.4
2017-Nov-10 04:15N 30°56' W 011°25'  

Dump ship's entire track history